Flight Track Log - Related Links

Times and Time Zones

All times are in EDT time to prevent confusion due to time zone crossing. See the UAL5900 flight status page for this flight to view local times or setup timezone preferences in your user account.

Time Position Orientation Groundspeed Altitude Reporting Facility
EDT Latitude Longitude Course Direction KTS MPH feet Rate Location/Type
Thu 08:30:42 PM 41.9167 -87.9167 176° South 194 223 3,200  Level Chicago TRACON
Thu 08:32:24 PM 41.8128 -87.9133 179° South 212 244 6,500 2,025 Climbing Chicago Center
Thu 08:33:25 PM 41.7456 -87.9067 176° South 238 274 8,700 2,488 Climbing Chicago Center
Thu 08:34:27 PM 41.6658 -87.8997 176° South 239 275 11,600 1,887 Climbing Chicago Center
Thu 08:35:29 PM 41.5967 -87.8942 177° South 245 282 12,600 823 Climbing Chicago Center
Thu 08:36:00 PM 41.4232 -87.7802 176° South  Level Estimated
Thu 08:36:31 PM 41.5144 -87.8867 176° South 292 336 13,300  Level Chicago Center
Thu 08:37:33 PM 41.4275 -87.8797 177° South 307 353 14,800 1,488 Climbing Chicago Center
Thu 08:38:36 PM 41.3408 -87.8847 182° South 307 353 16,400 1,680 Climbing Chicago Center
Thu 08:39:38 PM 41.2550 -87.8931 184° South 307 353 18,300 1,645 Climbing Chicago Center
Thu 08:40:40 PM 41.1692 -87.8906 179° South 308 354 19,800 1,645 Climbing Chicago Center
Thu 08:41:42 PM 41.0678 -87.8869 178° South 304 350 21,700 1,645 Climbing Chicago Center
Thu 08:42:44 PM 40.9836 -87.8847 179° South 302 348 23,200 1,355 Climbing Chicago Center
Thu 08:43:46 PM 40.9014 -87.8825 179° South 298 343 24,500 1,113 Climbing Chicago Center
Thu 08:44:48 PM 40.8181 -87.8803 179° South 299 344 25,500 1,016 Climbing Chicago Center
Thu 08:45:50 PM 40.7333 -87.8767 178° South 303 349 26,600 1,016 Climbing Chicago Center
Thu 08:46:52 PM 40.6489 -87.8739 179° South 304 350 27,600 1,113 Climbing Chicago Center
Thu 08:47:54 PM 40.5522 -87.8694 178° South 294 338 28,900 1,113 Climbing Chicago Center
Thu 08:48:56 PM 40.4711 -87.8708 181° South 292 336 29,900 960 Climbing Chicago Center
Thu 08:49:59 PM 40.3906 -87.8686 179° South 291 335 30,900 1,021 Climbing Chicago Center
Thu 08:50:30 PM 40.3436 -87.8658 177° South 289 333 31,500 1,097 Climbing Indianapolis Center
Thu 08:51:32 PM 40.2639 -87.8603 177° South 288 331 32,600 732 Climbing Indianapolis Center
Thu 08:52:33 PM 40.1819 -87.8572 178° South 289 333 33,000 195 Climbing Indianapolis Center
Thu 08:53:35 PM 40.0942 -87.8522 178° South 301 346 33,000  Level Indianapolis Center
Thu 08:54:37 PM 40.0019 -87.8497 179° South 317 365 33,000  Level Indianapolis Center
Thu 08:55:38 PM 39.9119 -87.8453 178° South 322 371 33,000  Level Indianapolis Center
Thu 08:56:40 PM 39.8236 -87.8419 178° South 320 368 33,000  Level Indianapolis Center
Thu 08:57:41 PM 39.7192 -87.8375 178° South 315 362 33,000  Level Indianapolis Center
Thu 08:58:43 PM 39.6314 -87.8344 178° South 314 361 33,000 -194 Level Indianapolis Center
Thu 08:59:45 PM 39.5447 -87.8303 178° South 313 360 32,600 -634 Descending Indianapolis Center
Thu 09:00:46 PM 39.4531 -87.8261 178° South 323 372 31,700 -780 Descending Indianapolis Center
Thu 09:01:48 PM 39.3594 -87.8225 178° South 332 382 31,000 -339 Descending Indianapolis Center
Thu 09:02:50 PM 39.2664 -87.8183 178° South 334 384 31,000  Level Indianapolis Center
Thu 09:03:51 PM 39.1744 -87.8144 178° South 331 381 31,000  Level Indianapolis Center
Thu 09:04:53 PM 39.0839 -87.8111 178° South 326 375 31,000  Level Indianapolis Center
Thu 09:05:55 PM 38.9933 -87.8053 177° South 326 375 31,000  Level Indianapolis Center
Thu 09:06:56 PM 38.8814 -87.8031 179° South 331 381 31,000  Level Indianapolis Center
Thu 09:07:58 PM 38.7886 -87.7986 178° South 332 382 31,000  Level Indianapolis Center
Thu 09:08:59 PM 38.6953 -87.7936 178° South 334 384 31,000  Level Indianapolis Center
Thu 09:10:01 PM 38.6017 -87.7897 178° South 335 386 31,000  Level Indianapolis Center
Thu 09:11:02 PM 38.5150 -87.7867 178° South 319 367 31,000  Level Indianapolis Center
Thu 09:12:04 PM 38.4336 -87.7828 178° South 300 345 31,000  Level Indianapolis Center
Thu 09:13:06 PM 38.3533 -87.7808 179° South 291 335 31,000 -585 Level Indianapolis Center
Thu 09:14:07 PM 38.2733 -87.7767 178° South 287 330 29,800 -1,463 Descending Indianapolis Center
Thu 09:15:09 PM 38.1728 -87.7717 178° South 300 345 28,000 -1,659 Descending Indianapolis Center
Thu 09:16:10 PM 38.0881 -87.7697 179° South 303 349 26,400 -1,512 Descending Indianapolis Center
Thu 09:17:12 PM 38.0056 -87.7656 178° South 298 343 24,900 -1,366 Descending Indianapolis Center
Thu 09:18:13 PM 37.9183 -87.7533 174° South 310 357 23,600 -927 Descending Indianapolis Center
Thu 09:19:15 PM 37.8356 -87.6792 145° Southeast 358 412 23,000 -293 Descending Indianapolis Center
Thu 09:20:16 PM 37.7547 -87.6078 145° Southeast 361 415 23,000  Level Indianapolis Center
Thu 09:21:18 PM 37.6706 -87.5322 145° Southeast 366 421 23,000  Level Indianapolis Center
Thu 09:22:19 PM 37.5667 -87.4422 146° Southeast 384 442 23,000  Level Indianapolis Center
Thu 09:23:08 PM 37.5067 -87.3844 143° Southeast 389 448 23,000  Level Memphis Center
Thu 09:24:08 PM 37.4236 -87.3144 146° Southeast 372 428 23,000 -450 Level Memphis Center
Thu 09:25:08 PM 37.3408 -87.2525 149° Southeast 354 407 22,100 -1,400 Descending Memphis Center
Thu 09:26:08 PM 37.2528 -87.2272 167° South 328 377 20,200 -2,000 Descending Memphis Center
Thu 09:26:41 PM 37.1919 -87.2142 170° South 338 389 19,000 -1,900 Descending Memphis Center
Thu 09:27:08 PM 37.1583 -87.1997 161° South 340 391 18,300 -1,475 Descending Memphis Center
Thu 09:27:42 PM 37.0997 -87.1839 168° South 354 407 17,500 -1,000 Descending Memphis Center
Thu 09:28:08 PM 37.0639 -87.1697 162° South 352 405 17,300 -492 Descending Memphis Center
Thu 09:28:43 PM 37.0008 -87.1542 169° South 354 407 17,000 -400 Descending Memphis Center
Thu 09:29:08 PM 36.9608 -87.1400 164° South 352 405 16,900 -500 Descending Memphis Center
Thu 09:29:43 PM 36.9150 -87.1317 172° South 331 381 16,500 -500 Descending Memphis Center
Thu 09:30:08 PM 36.8750 -87.1178 164° South 338 389 16,400 -424 Descending Memphis Center
Thu 09:31:08 PM 36.7908 -87.0847 163° South 322 371 15,900 -500 Descending Memphis Center
Thu 09:32:08 PM 36.7144 -87.0361 153° Southeast 309 356 15,400 -500 Descending Memphis Center
Thu 09:33:08 PM 36.6361 -86.9878 154° Southeast 309 356 14,900 -550 Descending Memphis Center
Thu 09:34:08 PM 36.5575 -86.9419 155° Southeast 309 356 14,300 -950 Descending Memphis Center
Thu 09:35:08 PM 36.4792 -86.8908 152° Southeast 309 356 13,000 -1,450 Descending Memphis Center
Thu 09:36:08 PM 36.4006 -86.8453 155° Southeast 309 356 11,400 -1,750 Descending Memphis Center
Thu 09:37:08 PM 36.3392 -86.8067 153° Southeast 292 336 9,500 -1,900 Descending Memphis Center
Thu 09:38:08 PM 36.2711 -86.7658 154° Southeast 270 311 7,600 -1,950 Descending Memphis Center
Thu 09:39:08 PM 36.2106 -86.7583 174° South 235 270 5,600 -1,300 Descending Memphis Center
Thu 09:40:08 PM 36.1508 -86.7817 198° South 221 254 5,000 -650 Descending Memphis Center
Thu 09:41:08 PM 36.0950 -86.8019 196° South 221 254 4,300 -1,000 Descending Memphis Center
Thu 09:42:08 PM 36.0372 -86.8197 194° South 221 254 3,000 -650 Descending Memphis Center
Thu 09:43:08 PM 35.9811 -86.8250 184° South 215 247 3,000  Level Memphis Center
Thu 09:44:08 PM 35.9747 -86.7533 96° East 177 204 3,000 -300 Level Memphis Center
Thu 09:45:08 PM 36.0239 -86.7228 27° Northeast 164 189 2,400 -700 Descending Memphis Center
Thu 09:46:08 PM 36.0672 -86.7081 15° North 164 189 1,600 -700 Descending Memphis Center
Thu 09:47:08 PM 36.1003 -86.6939 19° North 152 175 1,000 -500 Descending Memphis Center
Thu 09:48:08 PM 36.1414 -86.6792 16° North 152 175 600 -400 Descending Memphis Center
Thu 09:50:00 PM 36.1245 -86.6782 55° Northeast  Level Estimated
Thu 09:57:00 PM 36.1245 -86.6782 55° Northeast  Level Estimated
Thu 09:58:00 PM 36.1245 -86.6782 55° Northeast  Level Estimated
Thu 09:59:00 PM 36.1245 -86.6782 55° Northeast  Level Estimated
Thu 10:00:00 PM 36.1245 -86.6782 55° Northeast  Level Estimated

Login

Don't have an account? Register now (free) for customized features, flight alerts, and more!